sensor_id;sensor_type;location;lat;lon;timestamp;P1;durP1;ratioP1;P2;durP2;ratioP2
25559;SDS011;13450;49.374;8.584;2022-09-29T00:00:50;4.70;;;1.63;;
25559;SDS011;13450;49.374;8.584;2022-09-29T00:05:53;4.30;;;1.52;;
25559;SDS011;13450;49.374;8.584;2022-09-29T00:08:20;4.35;;;1.40;;
25559;SDS011;13450;49.374;8.584;2022-09-29T00:10:47;5.82;;;1.80;;
25559;SDS011;13450;49.374;8.584;2022-09-29T00:13:13;4.97;;;1.85;;
25559;SDS011;13450;49.374;8.584;2022-09-29T00:15:39;3.67;;;1.58;;
25559;SDS011;13450;49.374;8.584;2022-09-29T00:18:05;3.50;;;1.50;;
25559;SDS011;13450;49.374;8.584;2022-09-29T00:20:32;6.20;;;2.03;;
25559;SDS011;13450;49.374;8.584;2022-09-29T00:22:58;5.43;;;2.00;;
25559;SDS011;13450;49.374;8.584;2022-09-29T00:25:23;5.32;;;1.98;;
25559;SDS011;13450;49.374;8.584;2022-09-29T00:27:48;6.22;;;2.15;;
25559;SDS011;13450;49.374;8.584;2022-09-29T00:30:14;4.13;;;1.60;;
25559;SDS011;13450;49.374;8.584;2022-09-29T00:32:39;4.15;;;1.80;;
25559;SDS011;13450;49.374;8.584;2022-09-29T00:35:05;3.78;;;1.65;;
25559;SDS011;13450;49.374;8.584;2022-09-29T00:37:32;7.72;;;2.30;;
25559;SDS011;13450;49.374;8.584;2022-09-29T00:39:58;6.35;;;2.28;;
25559;SDS011;13450;49.374;8.584;2022-09-29T00:42:23;7.60;;;2.60;;
25559;SDS011;13450;49.374;8.584;2022-09-29T00:47:49;6.82;;;2.53;;
25559;SDS011;13450;49.374;8.584;2022-09-29T00:50:36;6.07;;;2.75;;
25559;SDS011;13450;49.374;8.584;2022-09-29T00:53:07;5.70;;;2.42;;
25559;SDS011;13450;49.374;8.584;2022-09-29T00:55:59;5.95;;;2.90;;
25559;SDS011;13450;49.374;8.584;2022-09-29T01:01:03;11.45;;;2.97;;
25559;SDS011;13450;49.374;8.584;2022-09-29T01:03:31;9.15;;;3.60;;
25559;SDS011;13450;49.374;8.584;2022-09-29T01:06:12;8.50;;;2.75;;
25559;SDS011;13450;49.374;8.584;2022-09-29T01:09:03;7.63;;;3.00;;
25559;SDS011;13450;49.374;8.584;2022-09-29T01:11:29;7.45;;;3.38;;
25559;SDS011;13450;49.374;8.584;2022-09-29T01:13:55;10.63;;;3.20;;
25559;SDS011;13450;49.374;8.584;2022-09-29T01:16:27;9.93;;;4.13;;
25559;SDS011;13450;49.374;8.584;2022-09-29T01:18:56;9.77;;;3.70;;
25559;SDS011;13450;49.374;8.584;2022-09-29T01:27:18;9.55;;;3.40;;
25559;SDS011;13450;49.374;8.584;2022-09-29T01:30:03;10.30;;;3.95;;
25559;SDS011;13450;49.374;8.584;2022-09-29T01:35:06;10.80;;;4.00;;
25559;SDS011;13450;49.374;8.584;2022-09-29T01:41:17;10.38;;;3.70;;
25559;SDS011;13450;49.374;8.584;2022-09-29T01:43:58;14.05;;;3.72;;
25559;SDS011;13450;49.374;8.584;2022-09-29T01:46:31;12.80;;;3.75;;
25559;SDS011;13450;49.374;8.584;2022-09-29T01:49:02;10.60;;;3.47;;
25559;SDS011;13450;49.374;8.584;2022-09-29T01:51:37;10.98;;;3.72;;
25559;SDS011;13450;49.374;8.584;2022-09-29T01:54:14;13.40;;;4.13;;
25559;SDS011;13450;49.374;8.584;2022-09-29T01:56:45;9.57;;;3.60;;
25559;SDS011;13450;49.374;8.584;2022-09-29T01:59:18;12.30;;;3.72;;
25559;SDS011;13450;49.374;8.584;2022-09-29T02:01:48;9.95;;;3.78;;
25559;SDS011;13450;49.374;8.584;2022-09-29T02:04:20;9.73;;;3.35;;
25559;SDS011;13450;49.374;8.584;2022-09-29T02:06:53;9.30;;;3.65;;
25559;SDS011;13450;49.374;8.584;2022-09-29T02:09:25;10.13;;;3.50;;
25559;SDS011;13450;49.374;8.584;2022-09-29T02:11:54;10.65;;;3.60;;
25559;SDS011;13450;49.374;8.584;2022-09-29T02:14:22;12.30;;;4.20;;
25559;SDS011;13450;49.374;8.584;2022-09-29T02:16:54;9.82;;;3.17;;
25559;SDS011;13450;49.374;8.584;2022-09-29T02:19:28;9.18;;;3.13;;
25559;SDS011;13450;49.374;8.584;2022-09-29T02:21:57;9.80;;;3.88;;
25559;SDS011;13450;49.374;8.584;2022-09-29T02:24:23;9.73;;;3.10;;
25559;SDS011;13450;49.374;8.584;2022-09-29T02:26:49;10.15;;;3.63;;
25559;SDS011;13450;49.374;8.584;2022-09-29T02:29:15;13.40;;;3.85;;
25559;SDS011;13450;49.374;8.584;2022-09-29T02:31:41;8.93;;;3.15;;
25559;SDS011;13450;49.374;8.584;2022-09-29T02:34:11;9.80;;;3.65;;
25559;SDS011;13450;49.374;8.584;2022-09-29T02:53:19;11.23;;;3.70;;
25559;SDS011;13450;49.374;8.584;2022-09-29T02:55:54;8.70;;;3.13;;
25559;SDS011;13450;49.374;8.584;2022-09-29T03:01:31;7.43;;;2.55;;
25559;SDS011;13450;49.374;8.584;2022-09-29T03:03:57;10.88;;;3.42;;
25559;SDS011;13450;49.374;8.584;2022-09-29T03:06:23;9.05;;;3.08;;
25559;SDS011;13450;49.374;8.584;2022-09-29T03:08:48;9.13;;;3.50;;
25559;SDS011;13450;49.374;8.584;2022-09-29T03:11:13;8.35;;;3.45;;
25559;SDS011;13450;49.374;8.584;2022-09-29T03:13:41;7.35;;;2.83;;
25559;SDS011;13450;49.374;8.584;2022-09-29T03:16:06;8.02;;;3.17;;
25559;SDS011;13450;49.374;8.584;2022-09-29T03:18:32;7.55;;;2.95;;
25559;SDS011;13450;49.374;8.584;2022-09-29T03:20:57;6.68;;;2.60;;
25559;SDS011;13450;49.374;8.584;2022-09-29T03:23:23;8.18;;;3.22;;
25559;SDS011;13450;49.374;8.584;2022-09-29T03:25:50;8.25;;;2.80;;
25559;SDS011;13450;49.374;8.584;2022-09-29T03:28:16;7.20;;;3.10;;
25559;SDS011;13450;49.374;8.584;2022-09-29T03:30:42;8.68;;;2.65;;
25559;SDS011;13450;49.374;8.584;2022-09-29T03:33:10;9.35;;;3.25;;
25559;SDS011;13450;49.374;8.584;2022-09-29T03:35:36;6.55;;;2.58;;
25559;SDS011;13450;49.374;8.584;2022-09-29T03:38:01;8.93;;;3.15;;
25559;SDS011;13450;49.374;8.584;2022-09-29T03:40:27;7.22;;;2.97;;
25559;SDS011;13450;49.374;8.584;2022-09-29T03:42:52;6.85;;;2.67;;
25559;SDS011;13450;49.374;8.584;2022-09-29T03:45:18;9.02;;;3.42;;
25559;SDS011;13450;49.374;8.584;2022-09-29T03:47:43;8.45;;;2.83;;
25559;SDS011;13450;49.374;8.584;2022-09-29T03:50:09;8.20;;;3.20;;
25559;SDS011;13450;49.374;8.584;2022-09-29T03:52:35;7.43;;;2.92;;
25559;SDS011;13450;49.374;8.584;2022-09-29T03:55:00;6.32;;;2.92;;
25559;SDS011;13450;49.374;8.584;2022-09-29T03:57:25;9.32;;;3.00;;
25559;SDS011;13450;49.374;8.584;2022-09-29T03:59:50;10.00;;;3.38;;
25559;SDS011;13450;49.374;8.584;2022-09-29T04:02:17;7.32;;;2.70;;
25559;SDS011;13450;49.374;8.584;2022-09-29T04:04:43;6.68;;;3.00;;
25559;SDS011;13450;49.374;8.584;2022-09-29T04:07:09;7.13;;;2.78;;
25559;SDS011;13450;49.374;8.584;2022-09-29T04:09:35;5.40;;;2.53;;
25559;SDS011;13450;49.374;8.584;2022-09-29T04:12:00;6.20;;;2.47;;
25559;SDS011;13450;49.374;8.584;2022-09-29T04:14:26;5.85;;;2.83;;
25559;SDS011;13450;49.374;8.584;2022-09-29T04:16:51;7.10;;;2.70;;
25559;SDS011;13450;49.374;8.584;2022-09-29T04:19:16;6.35;;;2.78;;
25559;SDS011;13450;49.374;8.584;2022-09-29T04:21:42;7.70;;;3.30;;
25559;SDS011;13450;49.374;8.584;2022-09-29T04:24:07;6.03;;;2.80;;
25559;SDS011;13450;49.374;8.584;2022-09-29T04:26:33;9.88;;;3.10;;
25559;SDS011;13450;49.374;8.584;2022-09-29T04:29:00;12.60;;;3.35;;
25559;SDS011;13450;49.374;8.584;2022-09-29T04:31:25;7.60;;;3.00;;
25559;SDS011;13450;49.374;8.584;2022-09-29T04:33:51;8.65;;;3.17;;
25559;SDS011;13450;49.374;8.584;2022-09-29T04:36:16;6.75;;;2.55;;
25559;SDS011;13450;49.374;8.584;2022-09-29T04:38:42;8.18;;;3.08;;
25559;SDS011;13450;49.374;8.584;2022-09-29T04:41:07;7.10;;;2.88;;
25559;SDS011;13450;49.374;8.584;2022-09-29T04:43:33;9.02;;;3.28;;
25559;SDS011;13450;49.374;8.584;2022-09-29T04:46:05;7.75;;;3.33;;
25559;SDS011;13450;49.374;8.584;2022-09-29T04:48:31;6.25;;;2.50;;
25559;SDS011;13450;49.374;8.584;2022-09-29T04:50:57;7.90;;;3.25;;
25559;SDS011;13450;49.374;8.584;2022-09-29T04:53:22;8.43;;;3.00;;
25559;SDS011;13450;49.374;8.584;2022-09-29T04:55:48;5.55;;;2.75;;
25559;SDS011;13450;49.374;8.584;2022-09-29T04:58:13;6.88;;;3.00;;
25559;SDS011;13450;49.374;8.584;2022-09-29T05:00:39;8.35;;;3.00;;
25559;SDS011;13450;49.374;8.584;2022-09-29T05:03:04;7.13;;;3.08;;
25559;SDS011;13450;49.374;8.584;2022-09-29T05:05:34;9.20;;;3.38;;
25559;SDS011;13450;49.374;8.584;2022-09-29T05:08:02;8.73;;;3.17;;
25559;SDS011;13450;49.374;8.584;2022-09-29T05:10:28;7.50;;;2.60;;
25559;SDS011;13450;49.374;8.584;2022-09-29T05:12:53;8.02;;;3.08;;
25559;SDS011;13450;49.374;8.584;2022-09-29T05:15:21;10.25;;;3.92;;
25559;SDS011;13450;49.374;8.584;2022-09-29T05:17:47;9.88;;;3.63;;
25559;SDS011;13450;49.374;8.584;2022-09-29T05:20:12;10.45;;;4.15;;
25559;SDS011;13450;49.374;8.584;2022-09-29T05:22:40;11.25;;;3.75;;
25559;SDS011;13450;49.374;8.584;2022-09-29T05:25:05;8.38;;;2.78;;
25559;SDS011;13450;49.374;8.584;2022-09-29T05:27:32;8.85;;;3.15;;
25559;SDS011;13450;49.374;8.584;2022-09-29T05:29:59;11.23;;;4.13;;
25559;SDS011;13450;49.374;8.584;2022-09-29T05:32:25;11.85;;;3.33;;
25559;SDS011;13450;49.374;8.584;2022-09-29T05:34:50;12.38;;;4.20;;
25559;SDS011;13450;49.374;8.584;2022-09-29T05:37:15;9.60;;;3.60;;
25559;SDS011;13450;49.374;8.584;2022-09-29T05:39:42;12.77;;;4.22;;
25559;SDS011;13450;49.374;8.584;2022-09-29T05:42:11;12.18;;;3.90;;
25559;SDS011;13450;49.374;8.584;2022-09-29T05:44:37;9.52;;;3.25;;
25559;SDS011;13450;49.374;8.584;2022-09-29T05:47:02;9.60;;;3.35;;
25559;SDS011;13450;49.374;8.584;2022-09-29T05:49:27;11.80;;;3.22;;
25559;SDS011;13450;49.374;8.584;2022-09-29T05:51:56;9.55;;;3.20;;
25559;SDS011;13450;49.374;8.584;2022-09-29T05:54:24;12.35;;;3.70;;
25559;SDS011;13450;49.374;8.584;2022-09-29T05:56:54;11.88;;;3.80;;
25559;SDS011;13450;49.374;8.584;2022-09-29T05:59:20;13.30;;;3.53;;
25559;SDS011;13450;49.374;8.584;2022-09-29T06:01:45;12.95;;;4.05;;
25559;SDS011;13450;49.374;8.584;2022-09-29T06:04:11;11.20;;;4.50;;
25559;SDS011;13450;49.374;8.584;2022-09-29T06:06:36;14.85;;;4.68;;
25559;SDS011;13450;49.374;8.584;2022-09-29T06:09:04;10.70;;;2.95;;
25559;SDS011;13450;49.374;8.584;2022-09-29T06:11:29;14.15;;;4.22;;
25559;SDS011;13450;49.374;8.584;2022-09-29T06:13:58;10.00;;;3.53;;
25559;SDS011;13450;49.374;8.584;2022-09-29T06:16:25;11.38;;;3.90;;
25559;SDS011;13450;49.374;8.584;2022-09-29T06:18:52;14.68;;;4.35;;
25559;SDS011;13450;49.374;8.584;2022-09-29T06:21:22;8.63;;;3.20;;
25559;SDS011;13450;49.374;8.584;2022-09-29T06:23:49;11.80;;;3.80;;
25559;SDS011;13450;49.374;8.584;2022-09-29T06:26:16;12.13;;;3.97;;
25559;SDS011;13450;49.374;8.584;2022-09-29T06:28:43;11.77;;;3.70;;
25559;SDS011;13450;49.374;8.584;2022-09-29T06:31:15;10.98;;;3.47;;
25559;SDS011;13450;49.374;8.584;2022-09-29T06:33:44;12.30;;;3.47;;
25559;SDS011;13450;49.374;8.584;2022-09-29T06:36:12;8.82;;;3.20;;
25559;SDS011;13450;49.374;8.584;2022-09-29T06:39:00;10.27;;;3.50;;
25559;SDS011;13450;49.374;8.584;2022-09-29T06:41:27;10.93;;;3.28;;
25559;SDS011;13450;49.374;8.584;2022-09-29T06:43:53;7.80;;;3.08;;
25559;SDS011;13450;49.374;8.584;2022-09-29T06:46:18;10.82;;;3.22;;
25559;SDS011;13450;49.374;8.584;2022-09-29T06:48:44;11.60;;;3.85;;
25559;SDS011;13450;49.374;8.584;2022-09-29T06:51:10;6.90;;;2.53;;
25559;SDS011;13450;49.374;8.584;2022-09-29T06:53:35;9.35;;;3.13;;
25559;SDS011;13450;49.374;8.584;2022-09-29T06:56:01;11.23;;;3.70;;
25559;SDS011;13450;49.374;8.584;2022-09-29T06:58:27;8.95;;;3.08;;
25559;SDS011;13450;49.374;8.584;2022-09-29T07:00:58;9.90;;;3.40;;
25559;SDS011;13450;49.374;8.584;2022-09-29T07:03:25;10.07;;;3.17;;
25559;SDS011;13450;49.374;8.584;2022-09-29T07:05:50;8.82;;;3.42;;
25559;SDS011;13450;49.374;8.584;2022-09-29T07:08:16;9.43;;;3.40;;
25559;SDS011;13450;49.374;8.584;2022-09-29T07:10:41;8.25;;;3.28;;
25559;SDS011;13450;49.374;8.584;2022-09-29T07:13:06;9.00;;;3.40;;
25559;SDS011;13450;49.374;8.584;2022-09-29T07:15:33;7.90;;;3.22;;
25559;SDS011;13450;49.374;8.584;2022-09-29T07:17:59;9.52;;;3.33;;
25559;SDS011;13450;49.374;8.584;2022-09-29T07:20:26;11.15;;;3.65;;
25559;SDS011;13450;49.374;8.584;2022-09-29T07:22:52;11.27;;;3.40;;
25559;SDS011;13450;49.374;8.584;2022-09-29T07:25:17;8.98;;;2.95;;
25559;SDS011;13450;49.374;8.584;2022-09-29T07:27:44;8.13;;;3.03;;
25559;SDS011;13450;49.374;8.584;2022-09-29T07:30:10;8.30;;;3.10;;
25559;SDS011;13450;49.374;8.584;2022-09-29T07:32:37;7.22;;;2.88;;
25559;SDS011;13450;49.374;8.584;2022-09-29T07:35:02;7.30;;;3.15;;
25559;SDS011;13450;49.374;8.584;2022-09-29T07:37:29;6.70;;;2.70;;
25559;SDS011;13450;49.374;8.584;2022-09-29T07:39:54;8.07;;;2.85;;
25559;SDS011;13450;49.374;8.584;2022-09-29T07:42:20;8.07;;;3.20;;
25559;SDS011;13450;49.374;8.584;2022-09-29T07:44:45;8.55;;;3.10;;
25559;SDS011;13450;49.374;8.584;2022-09-29T07:47:11;6.93;;;3.05;;
25559;SDS011;13450;49.374;8.584;2022-09-29T07:49:37;8.82;;;3.03;;
25559;SDS011;13450;49.374;8.584;2022-09-29T07:52:03;6.95;;;3.05;;
25559;SDS011;13450;49.374;8.584;2022-09-29T07:54:29;7.07;;;2.85;;
25559;SDS011;13450;49.374;8.584;2022-09-29T07:56:55;9.43;;;3.13;;
25559;SDS011;13450;49.374;8.584;2022-09-29T07:59:20;6.47;;;2.65;;
25559;SDS011;13450;49.374;8.584;2022-09-29T08:01:46;8.60;;;3.17;;
25559;SDS011;13450;49.374;8.584;2022-09-29T08:04:11;7.40;;;3.00;;
25559;SDS011;13450;49.374;8.584;2022-09-29T08:06:37;10.48;;;2.95;;
25559;SDS011;13450;49.374;8.584;2022-09-29T08:09:04;8.82;;;2.80;;
25559;SDS011;13450;49.374;8.584;2022-09-29T08:11:29;6.90;;;2.50;;
25559;SDS011;13450;49.374;8.584;2022-09-29T08:13:55;6.55;;;3.08;;
25559;SDS011;13450;49.374;8.584;2022-09-29T08:16:21;6.47;;;2.80;;
25559;SDS011;13450;49.374;8.584;2022-09-29T08:18:47;6.25;;;2.70;;
25559;SDS011;13450;49.374;8.584;2022-09-29T08:21:12;8.20;;;2.80;;
25559;SDS011;13450;49.374;8.584;2022-09-29T08:23:39;7.75;;;2.92;;
25559;SDS011;13450;49.374;8.584;2022-09-29T08:26:09;7.18;;;2.80;;
25559;SDS011;13450;49.374;8.584;2022-09-29T08:28:36;7.18;;;2.50;;
25559;SDS011;13450;49.374;8.584;2022-09-29T08:31:04;7.95;;;2.78;;
25559;SDS011;13450;49.374;8.584;2022-09-29T08:33:33;6.80;;;2.03;;
25559;SDS011;13450;49.374;8.584;2022-09-29T08:36:00;6.95;;;2.35;;
25559;SDS011;13450;49.374;8.584;2022-09-29T08:38:27;6.65;;;2.90;;
25559;SDS011;13450;49.374;8.584;2022-09-29T08:40:53;8.02;;;2.58;;
25559;SDS011;13450;49.374;8.584;2022-09-29T08:43:39;7.68;;;2.92;;
25559;SDS011;13450;49.374;8.584;2022-09-29T08:46:19;10.30;;;3.20;;
25559;SDS011;13450;49.374;8.584;2022-09-29T08:48:52;6.50;;;2.60;;
25559;SDS011;13450;49.374;8.584;2022-09-29T08:51:24;5.70;;;2.60;;
25559;SDS011;13450;49.374;8.584;2022-09-29T08:53:55;8.07;;;2.85;;
25559;SDS011;13450;49.374;8.584;2022-09-29T08:56:24;6.88;;;2.35;;
25559;SDS011;13450;49.374;8.584;2022-09-29T08:58:50;7.47;;;2.78;;
25559;SDS011;13450;49.374;8.584;2022-09-29T09:04:09;6.60;;;2.30;;
25559;SDS011;13450;49.374;8.584;2022-09-29T09:18:31;6.38;;;2.38;;
25559;SDS011;13450;49.374;8.584;2022-09-29T09:22:00;6.32;;;2.78;;
25559;SDS011;13450;49.374;8.584;2022-09-29T09:24:10;8.27;;;2.58;;
25559;SDS011;13450;49.374;8.584;2022-09-29T09:26:45;5.53;;;2.80;;
25559;SDS011;13450;49.374;8.584;2022-09-29T09:29:29;5.22;;;2.13;;
25559;SDS011;13450;49.374;8.584;2022-09-29T09:32:06;6.00;;;2.47;;
25559;SDS011;13450;49.374;8.584;2022-09-29T09:37:53;5.22;;;2.40;;
25559;SDS011;13450;49.374;8.584;2022-09-29T09:40:27;7.90;;;2.63;;
25559;SDS011;13450;49.374;8.584;2022-09-29T09:43:13;5.47;;;2.25;;
25559;SDS011;13450;49.374;8.584;2022-09-29T09:52:20;5.47;;;2.50;;
25559;SDS011;13450;49.374;8.584;2022-09-29T09:58:49;5.78;;;2.33;;
25559;SDS011;13450;49.374;8.584;2022-09-29T10:01:38;5.63;;;2.45;;
25559;SDS011;13450;49.374;8.584;2022-09-29T10:04:04;5.40;;;2.22;;
25559;SDS011;13450;49.374;8.584;2022-09-29T10:06:30;4.63;;;2.20;;
25559;SDS011;13450;49.374;8.584;2022-09-29T10:08:56;7.45;;;2.50;;
25559;SDS011;13450;49.374;8.584;2022-09-29T10:11:23;4.80;;;2.20;;
25559;SDS011;13450;49.374;8.584;2022-09-29T10:19:21;5.28;;;1.98;;
25559;SDS011;13450;49.374;8.584;2022-09-29T10:22:11;7.80;;;2.10;;
25559;SDS011;13450;49.374;8.584;2022-09-29T10:24:38;4.43;;;2.40;;
25559;SDS011;13450;49.374;8.584;2022-09-29T10:27:04;6.25;;;2.17;;
25559;SDS011;13450;49.374;8.584;2022-09-29T10:37:45;6.95;;;2.47;;
25559;SDS011;13450;49.374;8.584;2022-09-29T10:40:27;5.82;;;2.50;;
25559;SDS011;13450;49.374;8.584;2022-09-29T10:43:21;4.68;;;2.50;;
25559;SDS011;13450;49.374;8.584;2022-09-29T10:45:50;5.55;;;2.50;;
25559;SDS011;13450;49.374;8.584;2022-09-29T10:48:20;6.55;;;2.75;;
25559;SDS011;13450;49.374;8.584;2022-09-29T10:53:59;5.03;;;2.20;;
25559;SDS011;13450;49.374;8.584;2022-09-29T10:56:19;6.97;;;2.33;;
25559;SDS011;13450;49.374;8.584;2022-09-29T10:58:57;7.55;;;2.50;;
25559;SDS011;13450;49.374;8.584;2022-09-29T11:02:01;7.07;;;2.40;;
25559;SDS011;13450;49.374;8.584;2022-09-29T11:04:43;5.88;;;2.67;;
25559;SDS011;13450;49.374;8.584;2022-09-29T11:07:13;5.30;;;2.10;;
25559;SDS011;13450;49.374;8.584;2022-09-29T11:09:39;5.53;;;2.10;;
25559;SDS011;13450;49.374;8.584;2022-09-29T11:12:31;6.28;;;2.30;;
25559;SDS011;13450;49.374;8.584;2022-09-29T11:15:23;7.68;;;2.25;;
25559;SDS011;13450;49.374;8.584;2022-09-29T11:21:30;6.20;;;2.65;;
25559;SDS011;13450;49.374;8.584;2022-09-29T11:45:41;5.78;;;2.17;;
25559;SDS011;13450;49.374;8.584;2022-09-29T11:59:30;4.85;;;2.03;;
25559;SDS011;13450;49.374;8.584;2022-09-29T12:04:54;5.07;;;2.22;;
25559;SDS011;13450;49.374;8.584;2022-09-29T12:16:18;5.03;;;1.90;;
25559;SDS011;13450;49.374;8.584;2022-09-29T12:18:59;7.85;;;2.47;;
25559;SDS011;13450;49.374;8.584;2022-09-29T12:21:33;5.28;;;2.00;;
25559;SDS011;13450;49.374;8.584;2022-09-29T12:24:11;4.47;;;2.00;;
25559;SDS011;13450;49.374;8.584;2022-09-29T12:46:26;4.80;;;2.17;;
25559;SDS011;13450;49.374;8.584;2022-09-29T12:49:07;5.70;;;2.00;;
25559;SDS011;13450;49.374;8.584;2022-09-29T12:51:40;6.50;;;1.90;;
25559;SDS011;13450;49.374;8.584;2022-09-29T12:57:13;8.00;;;2.33;;
25559;SDS011;13450;49.374;8.584;2022-09-29T12:59:46;4.55;;;1.75;;
25559;SDS011;13450;49.374;8.584;2022-09-29T13:18:07;6.38;;;1.67;;
25559;SDS011;13450;49.374;8.584;2022-09-29T13:20:54;4.40;;;1.58;;
25559;SDS011;13450;49.374;8.584;2022-09-29T13:29:00;3.85;;;1.52;;
25559;SDS011;13450;49.374;8.584;2022-09-29T13:31:28;5.13;;;2.17;;
25559;SDS011;13450;49.374;8.584;2022-09-29T13:33:59;8.10;;;2.95;;
25559;SDS011;13450;49.374;8.584;2022-09-29T13:36:28;4.82;;;1.77;;
25559;SDS011;13450;49.374;8.584;2022-09-29T13:39:00;4.95;;;1.77;;
25559;SDS011;13450;49.374;8.584;2022-09-29T13:54:19;4.18;;;1.80;;
25559;SDS011;13450;49.374;8.584;2022-09-29T13:56:49;5.78;;;1.90;;
25559;SDS011;13450;49.374;8.584;2022-09-29T13:59:34;5.22;;;1.55;;
25559;SDS011;13450;49.374;8.584;2022-09-29T14:02:16;7.20;;;1.48;;
25559;SDS011;13450;49.374;8.584;2022-09-29T14:04:51;4.43;;;1.85;;
25559;SDS011;13450;49.374;8.584;2022-09-29T14:13:10;4.07;;;1.58;;
25559;SDS011;13450;49.374;8.584;2022-09-29T14:15:41;4.32;;;1.52;;
25559;SDS011;13450;49.374;8.584;2022-09-29T14:18:15;4.80;;;1.75;;
25559;SDS011;13450;49.374;8.584;2022-09-29T14:21:05;8.25;;;1.90;;
25559;SDS011;13450;49.374;8.584;2022-09-29T14:23:53;5.38;;;2.10;;
25559;SDS011;13450;49.374;8.584;2022-09-29T14:29:19;4.32;;;1.73;;
25559;SDS011;13450;49.374;8.584;2022-09-29T14:31:49;3.53;;;1.73;;
25559;SDS011;13450;49.374;8.584;2022-09-29T14:34:18;5.30;;;1.80;;
25559;SDS011;13450;49.374;8.584;2022-09-29T14:36:47;6.82;;;1.95;;
25559;SDS011;13450;49.374;8.584;2022-09-29T14:39:14;4.50;;;1.63;;
25559;SDS011;13450;49.374;8.584;2022-09-29T14:41:44;4.88;;;1.60;;
25559;SDS011;13450;49.374;8.584;2022-09-29T15:02:35;4.55;;;1.52;;
25559;SDS011;13450;49.374;8.584;2022-09-29T15:04:41;5.70;;;1.73;;
25559;SDS011;13450;49.374;8.584;2022-09-29T15:10:39;3.75;;;1.52;;
25559;SDS011;13450;49.374;8.584;2022-09-29T15:16:03;3.95;;;1.50;;
25559;SDS011;13450;49.374;8.584;2022-09-29T15:18:44;3.28;;;1.40;;
25559;SDS011;13450;49.374;8.584;2022-09-29T15:21:18;4.80;;;1.98;;
25559;SDS011;13450;49.374;8.584;2022-09-29T15:23:59;4.50;;;1.65;;
25559;SDS011;13450;49.374;8.584;2022-09-29T15:26:32;4.32;;;1.30;;
25559;SDS011;13450;49.374;8.584;2022-09-29T15:28:58;4.13;;;1.90;;
25559;SDS011;13450;49.374;8.584;2022-09-29T15:31:29;7.18;;;2.22;;
25559;SDS011;13450;49.374;8.584;2022-09-29T15:34:00;2.90;;;1.27;;
25559;SDS011;13450;49.374;8.584;2022-09-29T15:36:29;3.80;;;1.50;;
25559;SDS011;13450;49.374;8.584;2022-09-29T15:39:01;4.05;;;1.48;;
25559;SDS011;13450;49.374;8.584;2022-09-29T15:41:40;3.60;;;1.23;;
25559;SDS011;13450;49.374;8.584;2022-09-29T15:44:13;4.55;;;1.20;;
25559;SDS011;13450;49.374;8.584;2022-09-29T15:46:47;4.93;;;1.35;;
25559;SDS011;13450;49.374;8.584;2022-09-29T15:49:19;5.30;;;1.10;;
25559;SDS011;13450;49.374;8.584;2022-09-29T15:51:58;3.67;;;1.30;;
25559;SDS011;13450;49.374;8.584;2022-09-29T15:54:27;2.75;;;1.27;;
25559;SDS011;13450;49.374;8.584;2022-09-29T15:56:57;3.38;;;1.40;;
25559;SDS011;13450;49.374;8.584;2022-09-29T15:59:42;3.00;;;1.27;;
25559;SDS011;13450;49.374;8.584;2022-09-29T16:02:19;3.28;;;1.20;;
25559;SDS011;13450;49.374;8.584;2022-09-29T16:04:49;4.60;;;1.33;;
25559;SDS011;13450;49.374;8.584;2022-09-29T16:07:19;6.80;;;2.58;;
25559;SDS011;13450;49.374;8.584;2022-09-29T16:09:54;5.55;;;2.60;;
25559;SDS011;13450;49.374;8.584;2022-09-29T16:12:24;6.18;;;1.38;;
25559;SDS011;13450;49.374;8.584;2022-09-29T16:17:25;3.92;;;1.30;;
25559;SDS011;13450;49.374;8.584;2022-09-29T16:19:50;2.70;;;1.30;;
25559;SDS011;13450;49.374;8.584;2022-09-29T16:22:22;2.40;;;1.10;;
25559;SDS011;13450;49.374;8.584;2022-09-29T16:25:10;2.38;;;1.10;;
25559;SDS011;13450;49.374;8.584;2022-09-29T16:27:57;3.30;;;1.20;;
25559;SDS011;13450;49.374;8.584;2022-09-29T16:30:30;4.07;;;1.42;;
25559;SDS011;13450;49.374;8.584;2022-09-29T16:33:01;2.58;;;1.13;;
25559;SDS011;13450;49.374;8.584;2022-09-29T16:40:50;4.07;;;1.30;;
25559;SDS011;13450;49.374;8.584;2022-09-29T16:43:29;4.90;;;1.40;;
25559;SDS011;13450;49.374;8.584;2022-09-29T16:45:56;3.30;;;1.50;;
25559;SDS011;13450;49.374;8.584;2022-09-29T16:48:23;5.65;;;2.00;;
25559;SDS011;13450;49.374;8.584;2022-09-29T16:50:54;3.47;;;1.60;;
25559;SDS011;13450;49.374;8.584;2022-09-29T16:53:29;2.75;;;1.35;;
25559;SDS011;13450;49.374;8.584;2022-09-29T16:56:06;4.88;;;1.50;;
25559;SDS011;13450;49.374;8.584;2022-09-29T16:59:00;3.65;;;1.60;;
25559;SDS011;13450;49.374;8.584;2022-09-29T17:01:39;6.75;;;2.17;;
25559;SDS011;13450;49.374;8.584;2022-09-29T17:04:09;5.18;;;1.75;;
25559;SDS011;13450;49.374;8.584;2022-09-29T17:09:10;4.72;;;2.30;;
25559;SDS011;13450;49.374;8.584;2022-09-29T17:11:41;4.60;;;1.92;;
25559;SDS011;13450;49.374;8.584;2022-09-29T17:14:08;3.70;;;1.73;;
25559;SDS011;13450;49.374;8.584;2022-09-29T17:16:37;3.90;;;1.70;;
25559;SDS011;13450;49.374;8.584;2022-09-29T17:19:07;7.38;;;2.08;;
25559;SDS011;13450;49.374;8.584;2022-09-29T17:24:09;7.40;;;2.00;;
25559;SDS011;13450;49.374;8.584;2022-09-29T17:32:10;7.53;;;2.70;;
25559;SDS011;13450;49.374;8.584;2022-09-29T17:34:39;6.45;;;2.42;;
25559;SDS011;13450;49.374;8.584;2022-09-29T17:37:54;5.78;;;2.28;;
25559;SDS011;13450;49.374;8.584;2022-09-29T17:42:58;6.38;;;2.65;;
25559;SDS011;13450;49.374;8.584;2022-09-29T17:45:24;5.85;;;2.45;;
25559;SDS011;13450;49.374;8.584;2022-09-29T18:52:05;4.35;;;2.03;;
25559;SDS011;13450;49.374;8.584;2022-09-29T18:54:35;4.93;;;1.70;;
25559;SDS011;13450;49.374;8.584;2022-09-29T18:57:00;4.10;;;2.03;;
25559;SDS011;13450;49.374;8.584;2022-09-29T18:59:26;7.07;;;2.03;;
25559;SDS011;13450;49.374;8.584;2022-09-29T19:01:52;6.90;;;2.85;;
25559;SDS011;13450;49.374;8.584;2022-09-29T19:04:17;4.50;;;2.25;;
25559;SDS011;13450;49.374;8.584;2022-09-29T19:06:44;4.80;;;2.17;;
25559;SDS011;13450;49.374;8.584;2022-09-29T19:09:10;5.68;;;1.92;;
25559;SDS011;13450;49.374;8.584;2022-09-29T19:11:35;5.05;;;2.22;;
25559;SDS011;13450;49.374;8.584;2022-09-29T19:14:01;5.10;;;2.45;;
25559;SDS011;13450;49.374;8.584;2022-09-29T19:16:27;6.95;;;2.67;;
25559;SDS011;13450;49.374;8.584;2022-09-29T19:18:54;6.38;;;2.65;;
25559;SDS011;13450;49.374;8.584;2022-09-29T19:21:20;5.80;;;3.25;;
25559;SDS011;13450;49.374;8.584;2022-09-29T19:23:45;7.20;;;3.20;;
25559;SDS011;13450;49.374;8.584;2022-09-29T19:26:12;9.18;;;4.13;;
25559;SDS011;13450;49.374;8.584;2022-09-29T19:28:40;7.25;;;3.05;;
25559;SDS011;13450;49.374;8.584;2022-09-29T19:31:09;5.70;;;2.85;;
25559;SDS011;13450;49.374;8.584;2022-09-29T19:33:37;6.38;;;2.45;;
25559;SDS011;13450;49.374;8.584;2022-09-29T19:36:04;4.90;;;2.33;;
25559;SDS011;13450;49.374;8.584;2022-09-29T19:38:35;3.25;;;1.25;;
25559;SDS011;13450;49.374;8.584;2022-09-29T19:41:01;7.25;;;2.67;;
25559;SDS011;13450;49.374;8.584;2022-09-29T19:43:28;7.30;;;3.00;;
25559;SDS011;13450;49.374;8.584;2022-09-29T19:45:56;6.57;;;3.08;;
25559;SDS011;13450;49.374;8.584;2022-09-29T19:48:22;6.18;;;2.60;;
25559;SDS011;13450;49.374;8.584;2022-09-29T19:50:53;5.30;;;1.90;;
25559;SDS011;13450;49.374;8.584;2022-09-29T19:53:38;4.72;;;1.88;;
25559;SDS011;13450;49.374;8.584;2022-09-29T19:56:08;8.60;;;4.13;;
25559;SDS011;13450;49.374;8.584;2022-09-29T19:58:34;9.18;;;4.28;;
25559;SDS011;13450;49.374;8.584;2022-09-29T20:01:02;9.50;;;4.38;;
25559;SDS011;13450;49.374;8.584;2022-09-29T20:03:28;11.07;;;5.03;;
25559;SDS011;13450;49.374;8.584;2022-09-29T20:05:57;18.85;;;5.75;;
25559;SDS011;13450;49.374;8.584;2022-09-29T20:08:27;10.65;;;3.83;;
25559;SDS011;13450;49.374;8.584;2022-09-29T20:10:53;6.50;;;2.72;;